sensor_id;sensor_type;location;lat;lon;timestamp;P1;durP1;ratioP1;P2;durP2;ratioP2
4614;SDS011;2320;51.362;6.946;2024-03-08T00:00:04;25.07;;;18.97;;
4614;SDS011;2320;51.362;6.946;2024-03-08T00:02:37;24.67;;;17.83;;
4614;SDS011;2320;51.362;6.946;2024-03-08T00:05:04;27.40;;;19.77;;
4614;SDS011;2320;51.362;6.946;2024-03-08T00:07:31;26.63;;;18.43;;
4614;SDS011;2320;51.362;6.946;2024-03-08T00:09:56;25.33;;;18.27;;
4614;SDS011;2320;51.362;6.946;2024-03-08T00:12:22;25.33;;;17.10;;
4614;SDS011;2320;51.362;6.946;2024-03-08T00:14:47;30.60;;;18.60;;
4614;SDS011;2320;51.362;6.946;2024-03-08T00:17:13;23.40;;;17.33;;
4614;SDS011;2320;51.362;6.946;2024-03-08T00:19:40;32.00;;;17.27;;
4614;SDS011;2320;51.362;6.946;2024-03-08T00:22:06;23.27;;;17.20;;
4614;SDS011;2320;51.362;6.946;2024-03-08T00:24:32;22.80;;;17.40;;
4614;SDS011;2320;51.362;6.946;2024-03-08T00:26:58;24.90;;;19.30;;
4614;SDS011;2320;51.362;6.946;2024-03-08T00:29:24;26.47;;;19.00;;
4614;SDS011;2320;51.362;6.946;2024-03-08T00:31:49;23.43;;;18.03;;
4614;SDS011;2320;51.362;6.946;2024-03-08T00:34:15;25.07;;;18.63;;
4614;SDS011;2320;51.362;6.946;2024-03-08T00:36:41;29.40;;;19.20;;
4614;SDS011;2320;51.362;6.946;2024-03-08T00:39:06;23.10;;;17.73;;
4614;SDS011;2320;51.362;6.946;2024-03-08T00:41:32;26.60;;;19.50;;
4614;SDS011;2320;51.362;6.946;2024-03-08T00:43:58;26.00;;;19.07;;
4614;SDS011;2320;51.362;6.946;2024-03-08T00:46:23;24.10;;;18.90;;
4614;SDS011;2320;51.362;6.946;2024-03-08T00:48:49;22.80;;;17.17;;
4614;SDS011;2320;51.362;6.946;2024-03-08T00:51:14;25.13;;;19.40;;
4614;SDS011;2320;51.362;6.946;2024-03-08T00:53:41;29.23;;;17.90;;
4614;SDS011;2320;51.362;6.946;2024-03-08T00:56:09;32.87;;;19.77;;
4614;SDS011;2320;51.362;6.946;2024-03-08T00:58:37;25.10;;;17.90;;
4614;SDS011;2320;51.362;6.946;2024-03-08T01:01:03;27.23;;;18.63;;
4614;SDS011;2320;51.362;6.946;2024-03-08T01:03:30;23.13;;;17.07;;
4614;SDS011;2320;51.362;6.946;2024-03-08T01:05:59;28.63;;;19.97;;
4614;SDS011;2320;51.362;6.946;2024-03-08T01:08:26;26.63;;;19.03;;
4614;SDS011;2320;51.362;6.946;2024-03-08T01:10:52;28.53;;;19.93;;
4614;SDS011;2320;51.362;6.946;2024-03-08T01:13:18;26.67;;;19.30;;
4614;SDS011;2320;51.362;6.946;2024-03-08T01:15:44;27.40;;;20.50;;
4614;SDS011;2320;51.362;6.946;2024-03-08T01:18:10;27.93;;;20.47;;
4614;SDS011;2320;51.362;6.946;2024-03-08T01:20:35;29.53;;;20.00;;
4614;SDS011;2320;51.362;6.946;2024-03-08T01:23:01;28.27;;;19.30;;
4614;SDS011;2320;51.362;6.946;2024-03-08T01:25:27;24.27;;;19.13;;
4614;SDS011;2320;51.362;6.946;2024-03-08T01:27:53;27.53;;;18.83;;
4614;SDS011;2320;51.362;6.946;2024-03-08T01:30:19;31.53;;;19.87;;
4614;SDS011;2320;51.362;6.946;2024-03-08T01:32:45;28.23;;;20.47;;
4614;SDS011;2320;51.362;6.946;2024-03-08T01:35:10;28.67;;;19.10;;
4614;SDS011;2320;51.362;6.946;2024-03-08T01:37:36;26.40;;;19.17;;
4614;SDS011;2320;51.362;6.946;2024-03-08T01:40:02;26.20;;;17.93;;
4614;SDS011;2320;51.362;6.946;2024-03-08T01:42:28;29.00;;;18.70;;
4614;SDS011;2320;51.362;6.946;2024-03-08T01:44:54;33.63;;;21.23;;
4614;SDS011;2320;51.362;6.946;2024-03-08T01:47:20;26.97;;;17.30;;
4614;SDS011;2320;51.362;6.946;2024-03-08T01:49:48;28.17;;;19.73;;
4614;SDS011;2320;51.362;6.946;2024-03-08T01:52:15;28.27;;;20.10;;
4614;SDS011;2320;51.362;6.946;2024-03-08T01:54:43;30.23;;;20.43;;
4614;SDS011;2320;51.362;6.946;2024-03-08T01:57:09;34.33;;;20.83;;
4614;SDS011;2320;51.362;6.946;2024-03-08T01:59:36;28.00;;;19.57;;
4614;SDS011;2320;51.362;6.946;2024-03-08T02:02:02;32.17;;;20.50;;
4614;SDS011;2320;51.362;6.946;2024-03-08T02:04:29;30.27;;;19.77;;
4614;SDS011;2320;51.362;6.946;2024-03-08T02:06:58;32.90;;;21.37;;
4614;SDS011;2320;51.362;6.946;2024-03-08T02:09:24;26.67;;;20.10;;
4614;SDS011;2320;51.362;6.946;2024-03-08T02:11:50;24.80;;;19.67;;
4614;SDS011;2320;51.362;6.946;2024-03-08T02:14:16;29.10;;;18.73;;
4614;SDS011;2320;51.362;6.946;2024-03-08T02:16:43;25.90;;;18.90;;
4614;SDS011;2320;51.362;6.946;2024-03-08T02:19:09;29.53;;;19.53;;
4614;SDS011;2320;51.362;6.946;2024-03-08T02:21:35;30.20;;;20.30;;
4614;SDS011;2320;51.362;6.946;2024-03-08T02:24:01;27.33;;;19.23;;
4614;SDS011;2320;51.362;6.946;2024-03-08T02:26:27;28.63;;;19.83;;
4614;SDS011;2320;51.362;6.946;2024-03-08T02:28:52;27.40;;;20.43;;
4614;SDS011;2320;51.362;6.946;2024-03-08T02:31:19;36.33;;;23.27;;
4614;SDS011;2320;51.362;6.946;2024-03-08T02:33:44;33.83;;;22.90;;
4614;SDS011;2320;51.362;6.946;2024-03-08T02:36:12;28.30;;;20.57;;
4614;SDS011;2320;51.362;6.946;2024-03-08T02:38:38;32.23;;;22.07;;
4614;SDS011;2320;51.362;6.946;2024-03-08T02:41:06;31.93;;;21.70;;
4614;SDS011;2320;51.362;6.946;2024-03-08T02:43:32;35.47;;;21.97;;
4614;SDS011;2320;51.362;6.946;2024-03-08T02:45:59;37.97;;;19.77;;
4614;SDS011;2320;51.362;6.946;2024-03-08T02:48:24;27.30;;;21.90;;
4614;SDS011;2320;51.362;6.946;2024-03-08T02:50:50;35.07;;;22.40;;
4614;SDS011;2320;51.362;6.946;2024-03-08T02:53:16;31.83;;;19.07;;
4614;SDS011;2320;51.362;6.946;2024-03-08T02:55:43;33.50;;;21.47;;
4614;SDS011;2320;51.362;6.946;2024-03-08T02:58:09;36.40;;;24.07;;
4614;SDS011;2320;51.362;6.946;2024-03-08T03:00:35;32.80;;;21.00;;
4614;SDS011;2320;51.362;6.946;2024-03-08T03:03:01;31.07;;;20.87;;
4614;SDS011;2320;51.362;6.946;2024-03-08T03:05:28;44.30;;;23.40;;
4614;SDS011;2320;51.362;6.946;2024-03-08T03:07:54;30.17;;;20.50;;
4614;SDS011;2320;51.362;6.946;2024-03-08T03:10:20;34.80;;;23.20;;
4614;SDS011;2320;51.362;6.946;2024-03-08T03:12:49;35.53;;;22.67;;
4614;SDS011;2320;51.362;6.946;2024-03-08T03:15:15;28.90;;;21.07;;
4614;SDS011;2320;51.362;6.946;2024-03-08T03:17:47;30.87;;;22.77;;
4614;SDS011;2320;51.362;6.946;2024-03-08T03:20:13;34.13;;;21.33;;
4614;SDS011;2320;51.362;6.946;2024-03-08T03:22:39;34.53;;;23.67;;
4614;SDS011;2320;51.362;6.946;2024-03-08T03:25:06;38.33;;;23.07;;
4614;SDS011;2320;51.362;6.946;2024-03-08T03:27:33;34.67;;;21.40;;
4614;SDS011;2320;51.362;6.946;2024-03-08T03:29:58;27.07;;;19.57;;
4614;SDS011;2320;51.362;6.946;2024-03-08T03:32:44;33.47;;;21.50;;
4614;SDS011;2320;51.362;6.946;2024-03-08T03:35:12;33.43;;;21.47;;
4614;SDS011;2320;51.362;6.946;2024-03-08T03:37:39;30.03;;;20.33;;
4614;SDS011;2320;51.362;6.946;2024-03-08T03:40:07;27.80;;;20.87;;
4614;SDS011;2320;51.362;6.946;2024-03-08T03:42:34;33.47;;;22.67;;
4614;SDS011;2320;51.362;6.946;2024-03-08T03:44:59;36.37;;;23.80;;
4614;SDS011;2320;51.362;6.946;2024-03-08T03:47:25;32.50;;;21.87;;
4614;SDS011;2320;51.362;6.946;2024-03-08T03:49:52;35.73;;;23.93;;
4614;SDS011;2320;51.362;6.946;2024-03-08T03:52:19;35.30;;;23.43;;
4614;SDS011;2320;51.362;6.946;2024-03-08T03:54:44;32.63;;;22.47;;
4614;SDS011;2320;51.362;6.946;2024-03-08T03:57:10;31.50;;;22.47;;
4614;SDS011;2320;51.362;6.946;2024-03-08T03:59:37;27.67;;;21.23;;
4614;SDS011;2320;51.362;6.946;2024-03-08T04:02:02;35.90;;;22.57;;
4614;SDS011;2320;51.362;6.946;2024-03-08T04:04:29;33.90;;;22.90;;
4614;SDS011;2320;51.362;6.946;2024-03-08T04:06:54;36.33;;;23.70;;
4614;SDS011;2320;51.362;6.946;2024-03-08T04:09:20;38.77;;;26.57;;
4614;SDS011;2320;51.362;6.946;2024-03-08T04:11:47;33.97;;;23.33;;
4614;SDS011;2320;51.362;6.946;2024-03-08T04:14:13;33.20;;;23.00;;
4614;SDS011;2320;51.362;6.946;2024-03-08T04:16:39;35.53;;;22.63;;
4614;SDS011;2320;51.362;6.946;2024-03-08T04:19:04;34.70;;;23.40;;
4614;SDS011;2320;51.362;6.946;2024-03-08T04:21:30;35.00;;;23.77;;
4614;SDS011;2320;51.362;6.946;2024-03-08T04:23:56;39.03;;;24.67;;
4614;SDS011;2320;51.362;6.946;2024-03-08T04:26:22;38.77;;;27.17;;
4614;SDS011;2320;51.362;6.946;2024-03-08T04:28:48;37.87;;;23.50;;
4614;SDS011;2320;51.362;6.946;2024-03-08T04:31:13;35.77;;;24.40;;
4614;SDS011;2320;51.362;6.946;2024-03-08T04:33:40;35.83;;;23.53;;
4614;SDS011;2320;51.362;6.946;2024-03-08T04:36:06;44.13;;;26.20;;
4614;SDS011;2320;51.362;6.946;2024-03-08T04:38:33;38.53;;;25.13;;
4614;SDS011;2320;51.362;6.946;2024-03-08T04:40:59;49.97;;;24.43;;
4614;SDS011;2320;51.362;6.946;2024-03-08T04:43:27;39.83;;;24.57;;
4614;SDS011;2320;51.362;6.946;2024-03-08T04:45:55;45.40;;;24.90;;
4614;SDS011;2320;51.362;6.946;2024-03-08T04:48:20;41.13;;;25.67;;
4614;SDS011;2320;51.362;6.946;2024-03-08T04:50:46;38.10;;;24.20;;
4614;SDS011;2320;51.362;6.946;2024-03-08T04:53:12;41.30;;;24.60;;
4614;SDS011;2320;51.362;6.946;2024-03-08T04:55:37;35.97;;;22.10;;
4614;SDS011;2320;51.362;6.946;2024-03-08T04:58:03;36.80;;;25.33;;
4614;SDS011;2320;51.362;6.946;2024-03-08T05:00:32;44.37;;;26.67;;
4614;SDS011;2320;51.362;6.946;2024-03-08T05:02:58;39.10;;;25.50;;
4614;SDS011;2320;51.362;6.946;2024-03-08T05:05:24;41.40;;;25.17;;
4614;SDS011;2320;51.362;6.946;2024-03-08T05:07:51;35.27;;;22.63;;
4614;SDS011;2320;51.362;6.946;2024-03-08T05:10:16;36.70;;;24.30;;
4614;SDS011;2320;51.362;6.946;2024-03-08T05:12:42;35.37;;;23.33;;
4614;SDS011;2320;51.362;6.946;2024-03-08T05:15:08;35.80;;;23.00;;
4614;SDS011;2320;51.362;6.946;2024-03-08T05:17:33;38.40;;;22.13;;
4614;SDS011;2320;51.362;6.946;2024-03-08T05:19:59;38.33;;;24.40;;
4614;SDS011;2320;51.362;6.946;2024-03-08T05:22:25;39.10;;;23.77;;
4614;SDS011;2320;51.362;6.946;2024-03-08T05:24:51;33.73;;;25.57;;
4614;SDS011;2320;51.362;6.946;2024-03-08T05:27:16;43.93;;;24.43;;
4614;SDS011;2320;51.362;6.946;2024-03-08T05:29:42;37.90;;;24.87;;
4614;SDS011;2320;51.362;6.946;2024-03-08T05:32:08;47.57;;;27.30;;
4614;SDS011;2320;51.362;6.946;2024-03-08T05:34:34;43.60;;;27.20;;
4614;SDS011;2320;51.362;6.946;2024-03-08T05:37:00;44.77;;;26.43;;
4614;SDS011;2320;51.362;6.946;2024-03-08T05:39:26;37.53;;;24.07;;
4614;SDS011;2320;51.362;6.946;2024-03-08T05:41:52;37.13;;;22.97;;
4614;SDS011;2320;51.362;6.946;2024-03-08T05:44:18;40.97;;;24.50;;
4614;SDS011;2320;51.362;6.946;2024-03-08T05:46:43;40.33;;;25.40;;
4614;SDS011;2320;51.362;6.946;2024-03-08T05:49:09;41.10;;;27.80;;
4614;SDS011;2320;51.362;6.946;2024-03-08T05:51:38;40.57;;;26.30;;
4614;SDS011;2320;51.362;6.946;2024-03-08T05:54:05;39.03;;;25.10;;
4614;SDS011;2320;51.362;6.946;2024-03-08T05:56:35;43.83;;;25.20;;
4614;SDS011;2320;51.362;6.946;2024-03-08T05:59:01;37.07;;;24.90;;
4614;SDS011;2320;51.362;6.946;2024-03-08T06:01:27;38.90;;;23.00;;
4614;SDS011;2320;51.362;6.946;2024-03-08T06:03:54;39.77;;;23.07;;
4614;SDS011;2320;51.362;6.946;2024-03-08T06:06:23;39.70;;;24.13;;
4614;SDS011;2320;51.362;6.946;2024-03-08T06:08:50;39.17;;;24.33;;
4614;SDS011;2320;51.362;6.946;2024-03-08T06:11:16;36.47;;;25.70;;
4614;SDS011;2320;51.362;6.946;2024-03-08T06:13:46;41.30;;;23.77;;
4614;SDS011;2320;51.362;6.946;2024-03-08T06:16:12;29.87;;;21.33;;
4614;SDS011;2320;51.362;6.946;2024-03-08T06:18:38;34.20;;;22.10;;
4614;SDS011;2320;51.362;6.946;2024-03-08T06:21:06;35.97;;;21.73;;
4614;SDS011;2320;51.362;6.946;2024-03-08T06:23:34;34.87;;;23.77;;
4614;SDS011;2320;51.362;6.946;2024-03-08T06:26:03;40.17;;;23.33;;
4614;SDS011;2320;51.362;6.946;2024-03-08T06:28:32;42.70;;;23.80;;
4614;SDS011;2320;51.362;6.946;2024-03-08T06:30:59;34.60;;;23.70;;
4614;SDS011;2320;51.362;6.946;2024-03-08T06:33:25;37.43;;;24.53;;
4614;SDS011;2320;51.362;6.946;2024-03-08T06:35:54;37.93;;;22.77;;
4614;SDS011;2320;51.362;6.946;2024-03-08T06:38:23;31.80;;;21.70;;
4614;SDS011;2320;51.362;6.946;2024-03-08T06:40:49;35.67;;;24.30;;
4614;SDS011;2320;51.362;6.946;2024-03-08T06:43:16;47.27;;;22.67;;
4614;SDS011;2320;51.362;6.946;2024-03-08T06:45:43;38.27;;;25.70;;
4614;SDS011;2320;51.362;6.946;2024-03-08T06:48:16;37.70;;;23.27;;
4614;SDS011;2320;51.362;6.946;2024-03-08T06:50:46;33.77;;;22.00;;
4614;SDS011;2320;51.362;6.946;2024-03-08T06:53:12;33.20;;;21.90;;
4614;SDS011;2320;51.362;6.946;2024-03-08T06:55:38;34.60;;;21.97;;
4614;SDS011;2320;51.362;6.946;2024-03-08T06:58:05;32.20;;;21.37;;
4614;SDS011;2320;51.362;6.946;2024-03-08T07:00:31;27.80;;;19.50;;
4614;SDS011;2320;51.362;6.946;2024-03-08T07:02:57;29.90;;;20.20;;
4614;SDS011;2320;51.362;6.946;2024-03-08T07:05:26;29.50;;;20.37;;
4614;SDS011;2320;51.362;6.946;2024-03-08T07:07:52;27.93;;;21.30;;
4614;SDS011;2320;51.362;6.946;2024-03-08T07:10:19;29.90;;;21.57;;
4614;SDS011;2320;51.362;6.946;2024-03-08T07:12:46;28.87;;;19.70;;
4614;SDS011;2320;51.362;6.946;2024-03-08T07:15:12;30.23;;;21.87;;
4614;SDS011;2320;51.362;6.946;2024-03-08T07:17:41;29.40;;;21.20;;
4614;SDS011;2320;51.362;6.946;2024-03-08T07:20:09;26.07;;;21.50;;
4614;SDS011;2320;51.362;6.946;2024-03-08T07:22:37;28.07;;;20.43;;
4614;SDS011;2320;51.362;6.946;2024-03-08T07:25:06;25.83;;;21.90;;
4614;SDS011;2320;51.362;6.946;2024-03-08T07:27:48;22.33;;;18.23;;
4614;SDS011;2320;51.362;6.946;2024-03-08T07:30:18;25.17;;;19.17;;
4614;SDS011;2320;51.362;6.946;2024-03-08T07:33:06;22.87;;;19.20;;
4614;SDS011;2320;51.362;6.946;2024-03-08T07:35:32;23.77;;;18.83;;
4614;SDS011;2320;51.362;6.946;2024-03-08T07:38:02;27.97;;;19.60;;
4614;SDS011;2320;51.362;6.946;2024-03-08T07:40:29;22.10;;;18.83;;
4614;SDS011;2320;51.362;6.946;2024-03-08T07:42:55;24.50;;;19.50;;
4614;SDS011;2320;51.362;6.946;2024-03-08T07:45:21;26.23;;;19.67;;
4614;SDS011;2320;51.362;6.946;2024-03-08T07:47:47;22.27;;;18.80;;
4614;SDS011;2320;51.362;6.946;2024-03-08T07:50:12;25.57;;;19.33;;
4614;SDS011;2320;51.362;6.946;2024-03-08T07:52:41;24.97;;;18.80;;
4614;SDS011;2320;51.362;6.946;2024-03-08T07:55:07;23.53;;;18.10;;
4614;SDS011;2320;51.362;6.946;2024-03-08T07:57:33;25.83;;;18.67;;
4614;SDS011;2320;51.362;6.946;2024-03-08T07:59:59;20.20;;;17.67;;
4614;SDS011;2320;51.362;6.946;2024-03-08T08:02:25;24.47;;;18.40;;
4614;SDS011;2320;51.362;6.946;2024-03-08T08:04:50;21.40;;;18.17;;
4614;SDS011;2320;51.362;6.946;2024-03-08T08:07:16;22.57;;;18.67;;
4614;SDS011;2320;51.362;6.946;2024-03-08T08:09:41;21.73;;;16.83;;
4614;SDS011;2320;51.362;6.946;2024-03-08T08:12:10;23.53;;;19.13;;
4614;SDS011;2320;51.362;6.946;2024-03-08T08:14:37;22.50;;;19.23;;
4614;SDS011;2320;51.362;6.946;2024-03-08T08:17:04;22.73;;;19.13;;
4614;SDS011;2320;51.362;6.946;2024-03-08T08:19:29;23.53;;;20.20;;
4614;SDS011;2320;51.362;6.946;2024-03-08T08:21:57;27.47;;;18.90;;
4614;SDS011;2320;51.362;6.946;2024-03-08T08:24:22;23.80;;;18.27;;
4614;SDS011;2320;51.362;6.946;2024-03-08T08:26:48;23.77;;;19.80;;
4614;SDS011;2320;51.362;6.946;2024-03-08T08:29:14;28.03;;;20.30;;
4614;SDS011;2320;51.362;6.946;2024-03-08T08:31:39;27.27;;;21.30;;
4614;SDS011;2320;51.362;6.946;2024-03-08T08:34:05;30.60;;;22.83;;
4614;SDS011;2320;51.362;6.946;2024-03-08T08:36:32;22.17;;;19.73;;
4614;SDS011;2320;51.362;6.946;2024-03-08T08:39:00;26.93;;;21.27;;
4614;SDS011;2320;51.362;6.946;2024-03-08T08:41:28;24.03;;;19.93;;
4614;SDS011;2320;51.362;6.946;2024-03-08T08:44:06;27.10;;;21.30;;
4614;SDS011;2320;51.362;6.946;2024-03-08T08:46:35;27.30;;;23.10;;
4614;SDS011;2320;51.362;6.946;2024-03-08T08:49:07;24.50;;;20.83;;
4614;SDS011;2320;51.362;6.946;2024-03-08T08:51:35;25.47;;;20.97;;
4614;SDS011;2320;51.362;6.946;2024-03-08T08:54:01;23.83;;;20.57;;
4614;SDS011;2320;51.362;6.946;2024-03-08T08:56:27;24.87;;;21.20;;
4614;SDS011;2320;51.362;6.946;2024-03-08T08:58:53;22.73;;;19.37;;
4614;SDS011;2320;51.362;6.946;2024-03-08T09:01:19;27.37;;;21.10;;
4614;SDS011;2320;51.362;6.946;2024-03-08T09:03:45;21.80;;;19.50;;
4614;SDS011;2320;51.362;6.946;2024-03-08T09:06:15;26.33;;;21.80;;
4614;SDS011;2320;51.362;6.946;2024-03-08T09:08:41;24.40;;;21.87;;
4614;SDS011;2320;51.362;6.946;2024-03-08T09:11:08;27.27;;;20.47;;
4614;SDS011;2320;51.362;6.946;2024-03-08T09:13:34;26.93;;;21.73;;
4614;SDS011;2320;51.362;6.946;2024-03-08T09:16:00;25.40;;;20.53;;
4614;SDS011;2320;51.362;6.946;2024-03-08T09:18:26;21.80;;;19.03;;
4614;SDS011;2320;51.362;6.946;2024-03-08T09:20:52;25.57;;;22.20;;
4614;SDS011;2320;51.362;6.946;2024-03-08T09:23:21;23.93;;;20.33;;
4614;SDS011;2320;51.362;6.946;2024-03-08T09:25:47;23.53;;;21.00;;
4614;SDS011;2320;51.362;6.946;2024-03-08T09:28:12;26.20;;;21.23;;
4614;SDS011;2320;51.362;6.946;2024-03-08T09:30:39;27.30;;;22.50;;
4614;SDS011;2320;51.362;6.946;2024-03-08T09:33:05;22.03;;;19.80;;
4614;SDS011;2320;51.362;6.946;2024-03-08T09:35:31;24.53;;;21.40;;
4614;SDS011;2320;51.362;6.946;2024-03-08T09:37:57;25.70;;;21.40;;
4614;SDS011;2320;51.362;6.946;2024-03-08T09:40:22;24.00;;;21.40;;
4614;SDS011;2320;51.362;6.946;2024-03-08T09:42:50;23.83;;;21.37;;
4614;SDS011;2320;51.362;6.946;2024-03-08T09:45:17;24.90;;;20.03;;
4614;SDS011;2320;51.362;6.946;2024-03-08T09:47:47;21.60;;;18.87;;
4614;SDS011;2320;51.362;6.946;2024-03-08T09:50:14;22.03;;;19.63;;
4614;SDS011;2320;51.362;6.946;2024-03-08T09:52:40;24.30;;;19.80;;
4614;SDS011;2320;51.362;6.946;2024-03-08T09:55:06;23.87;;;20.80;;
4614;SDS011;2320;51.362;6.946;2024-03-08T09:57:32;22.73;;;20.33;;
4614;SDS011;2320;51.362;6.946;2024-03-08T09:59:59;24.10;;;20.77;;
4614;SDS011;2320;51.362;6.946;2024-03-08T10:02:24;22.07;;;19.67;;
4614;SDS011;2320;51.362;6.946;2024-03-08T10:04:51;23.23;;;19.90;;
4614;SDS011;2320;51.362;6.946;2024-03-08T10:07:18;22.33;;;19.93;;
4614;SDS011;2320;51.362;6.946;2024-03-08T10:09:44;18.37;;;16.47;;
4614;SDS011;2320;51.362;6.946;2024-03-08T10:12:15;19.80;;;17.70;;
4614;SDS011;2320;51.362;6.946;2024-03-08T10:14:42;15.77;;;13.80;;
4614;SDS011;2320;51.362;6.946;2024-03-08T10:17:08;15.07;;;13.50;;
4614;SDS011;2320;51.362;6.946;2024-03-08T10:19:34;20.40;;;14.80;;
4614;SDS011;2320;51.362;6.946;2024-03-08T10:22:00;20.10;;;16.23;;
4614;SDS011;2320;51.362;6.946;2024-03-08T10:24:26;16.23;;;14.53;;
4614;SDS011;2320;51.362;6.946;2024-03-08T10:27:01;18.60;;;14.67;;
4614;SDS011;2320;51.362;6.946;2024-03-08T10:29:29;18.60;;;14.17;;
4614;SDS011;2320;51.362;6.946;2024-03-08T10:31:57;19.17;;;15.27;;
4614;SDS011;2320;51.362;6.946;2024-03-08T10:34:23;18.90;;;13.40;;
4614;SDS011;2320;51.362;6.946;2024-03-08T10:36:50;20.00;;;15.27;;
4614;SDS011;2320;51.362;6.946;2024-03-08T10:39:23;17.37;;;12.90;;
4614;SDS011;2320;51.362;6.946;2024-03-08T10:41:53;19.63;;;14.30;;
4614;SDS011;2320;51.362;6.946;2024-03-08T10:49:37;20.37;;;14.80;;
4614;SDS011;2320;51.362;6.946;2024-03-08T10:52:04;16.40;;;14.60;;
4614;SDS011;2320;51.362;6.946;2024-03-08T10:54:33;18.80;;;14.97;;
4614;SDS011;2320;51.362;6.946;2024-03-08T10:57:03;22.43;;;15.27;;
4614;SDS011;2320;51.362;6.946;2024-03-08T10:59:30;18.73;;;15.10;;
4614;SDS011;2320;51.362;6.946;2024-03-08T11:01:59;17.00;;;12.80;;
4614;SDS011;2320;51.362;6.946;2024-03-08T11:04:25;14.97;;;12.30;;
4614;SDS011;2320;51.362;6.946;2024-03-08T11:06:51;15.37;;;12.53;;
4614;SDS011;2320;51.362;6.946;2024-03-08T11:09:29;17.43;;;14.00;;
4614;SDS011;2320;51.362;6.946;2024-03-08T11:14:55;16.80;;;12.70;;
4614;SDS011;2320;51.362;6.946;2024-03-08T11:19:56;18.70;;;13.30;;
4614;SDS011;2320;51.362;6.946;2024-03-08T11:22:32;18.53;;;13.50;;
4614;SDS011;2320;51.362;6.946;2024-03-08T11:24:59;14.47;;;12.97;;
4614;SDS011;2320;51.362;6.946;2024-03-08T11:27:30;18.67;;;11.67;;
4614;SDS011;2320;51.362;6.946;2024-03-08T11:30:03;13.33;;;11.67;;
4614;SDS011;2320;51.362;6.946;2024-03-08T11:32:36;18.53;;;13.20;;
4614;SDS011;2320;51.362;6.946;2024-03-08T11:35:06;18.90;;;13.47;;
4614;SDS011;2320;51.362;6.946;2024-03-08T11:37:34;16.40;;;12.40;;
4614;SDS011;2320;51.362;6.946;2024-03-08T11:40:00;17.77;;;13.60;;
4614;SDS011;2320;51.362;6.946;2024-03-08T11:42:29;15.73;;;12.27;;
4614;SDS011;2320;51.362;6.946;2024-03-08T11:44:55;18.23;;;11.67;;
4614;SDS011;2320;51.362;6.946;2024-03-08T11:47:21;16.10;;;11.70;;
4614;SDS011;2320;51.362;6.946;2024-03-08T11:49:47;14.07;;;11.70;;
4614;SDS011;2320;51.362;6.946;2024-03-08T11:52:17;13.33;;;11.83;;
4614;SDS011;2320;51.362;6.946;2024-03-08T11:54:47;19.70;;;12.80;;
4614;SDS011;2320;51.362;6.946;2024-03-08T11:57:19;15.00;;;11.63;;
4614;SDS011;2320;51.362;6.946;2024-03-08T11:59:53;15.57;;;11.13;;
4614;SDS011;2320;51.362;6.946;2024-03-08T12:02:21;14.70;;;12.23;;
4614;SDS011;2320;51.362;6.946;2024-03-08T12:04:50;16.20;;;11.70;;
4614;SDS011;2320;51.362;6.946;2024-03-08T12:07:22;14.13;;;10.57;;
4614;SDS011;2320;51.362;6.946;2024-03-08T12:12:49;15.90;;;11.63;;
4614;SDS011;2320;51.362;6.946;2024-03-08T12:15:17;15.73;;;11.63;;
4614;SDS011;2320;51.362;6.946;2024-03-08T12:17:44;16.67;;;12.27;;
4614;SDS011;2320;51.362;6.946;2024-03-08T12:22:49;15.50;;;12.63;;
4614;SDS011;2320;51.362;6.946;2024-03-08T12:25:18;13.97;;;11.73;;
4614;SDS011;2320;51.362;6.946;2024-03-08T12:27:44;14.03;;;11.63;;
4614;SDS011;2320;51.362;6.946;2024-03-08T12:30:17;15.37;;;12.13;;
4614;SDS011;2320;51.362;6.946;2024-03-08T12:32:57;16.93;;;12.60;;
4614;SDS011;2320;51.362;6.946;2024-03-08T12:35:25;13.83;;;10.47;;
4614;SDS011;2320;51.362;6.946;2024-03-08T12:37:52;12.70;;;10.33;;
4614;SDS011;2320;51.362;6.946;2024-03-08T12:40:19;11.37;;;10.13;;
4614;SDS011;2320;51.362;6.946;2024-03-08T12:42:58;11.43;;;9.27;;
4614;SDS011;2320;51.362;6.946;2024-03-08T12:45:24;13.67;;;10.67;;
4614;SDS011;2320;51.362;6.946;2024-03-08T12:47:53;17.37;;;10.37;;
4614;SDS011;2320;51.362;6.946;2024-03-08T12:50:20;11.60;;;9.10;;
4614;SDS011;2320;51.362;6.946;2024-03-08T12:52:49;13.37;;;11.03;;
4614;SDS011;2320;51.362;6.946;2024-03-08T12:55:17;14.40;;;9.97;;
4614;SDS011;2320;51.362;6.946;2024-03-08T12:57:43;12.60;;;9.47;;
4614;SDS011;2320;51.362;6.946;2024-03-08T13:00:09;13.60;;;8.83;;
4614;SDS011;2320;51.362;6.946;2024-03-08T13:02:38;11.13;;;9.30;;
4614;SDS011;2320;51.362;6.946;2024-03-08T13:05:05;13.03;;;8.67;;
4614;SDS011;2320;51.362;6.946;2024-03-08T13:07:30;11.57;;;9.30;;
4614;SDS011;2320;51.362;6.946;2024-03-08T13:09:56;13.37;;;9.83;;
4614;SDS011;2320;51.362;6.946;2024-03-08T13:12:24;12.30;;;8.63;;
4614;SDS011;2320;51.362;6.946;2024-03-08T13:14:50;12.50;;;10.20;;
4614;SDS011;2320;51.362;6.946;2024-03-08T13:17:16;15.13;;;9.23;;
4614;SDS011;2320;51.362;6.946;2024-03-08T13:19:43;10.27;;;9.03;;
4614;SDS011;2320;51.362;6.946;2024-03-08T13:22:09;12.27;;;10.40;;
4614;SDS011;2320;51.362;6.946;2024-03-08T13:24:41;15.83;;;11.20;;
4614;SDS011;2320;51.362;6.946;2024-03-08T13:27:08;10.40;;;8.87;;
4614;SDS011;2320;51.362;6.946;2024-03-08T13:29:47;13.63;;;9.30;;
4614;SDS011;2320;51.362;6.946;2024-03-08T13:32:16;12.43;;;9.80;;
4614;SDS011;2320;51.362;6.946;2024-03-08T13:34:42;12.43;;;9.23;;
4614;SDS011;2320;51.362;6.946;2024-03-08T13:37:10;10.83;;;8.77;;
4614;SDS011;2320;51.362;6.946;2024-03-08T13:39:36;9.57;;;8.63;;
4614;SDS011;2320;51.362;6.946;2024-03-08T13:42:08;9.40;;;8.40;;
4614;SDS011;2320;51.362;6.946;2024-03-08T13:44:37;10.90;;;9.00;;
4614;SDS011;2320;51.362;6.946;2024-03-08T13:47:04;12.23;;;9.63;;
4614;SDS011;2320;51.362;6.946;2024-03-08T13:49:30;13.27;;;9.63;;
4614;SDS011;2320;51.362;6.946;2024-03-08T13:51:56;10.63;;;8.13;;
4614;SDS011;2320;51.362;6.946;2024-03-08T13:54:24;13.53;;;9.53;;
4614;SDS011;2320;51.362;6.946;2024-03-08T13:56:49;14.70;;;11.37;;
4614;SDS011;2320;51.362;6.946;2024-03-08T13:59:19;13.00;;;9.53;;
4614;SDS011;2320;51.362;6.946;2024-03-08T14:01:47;10.57;;;8.40;;
4614;SDS011;2320;51.362;6.946;2024-03-08T14:04:14;12.20;;;9.33;;
4614;SDS011;2320;51.362;6.946;2024-03-08T14:06:42;13.40;;;9.73;;
4614;SDS011;2320;51.362;6.946;2024-03-08T14:09:10;11.37;;;9.07;;
4614;SDS011;2320;51.362;6.946;2024-03-08T14:11:42;12.33;;;8.97;;
4614;SDS011;2320;51.362;6.946;2024-03-08T14:14:09;10.30;;;8.70;;
4614;SDS011;2320;51.362;6.946;2024-03-08T14:16:36;11.17;;;9.87;;
4614;SDS011;2320;51.362;6.946;2024-03-08T14:19:02;11.90;;;9.10;;
4614;SDS011;2320;51.362;6.946;2024-03-08T14:21:31;11.87;;;9.30;;
4614;SDS011;2320;51.362;6.946;2024-03-08T14:23:56;16.80;;;9.80;;
4614;SDS011;2320;51.362;6.946;2024-03-08T14:26:22;8.63;;;7.83;;
4614;SDS011;2320;51.362;6.946;2024-03-08T14:28:48;14.03;;;10.20;;
4614;SDS011;2320;51.362;6.946;2024-03-08T14:31:17;14.57;;;10.97;;
4614;SDS011;2320;51.362;6.946;2024-03-08T14:33:44;11.93;;;10.13;;
4614;SDS011;2320;51.362;6.946;2024-03-08T14:36:13;15.10;;;10.70;;
4614;SDS011;2320;51.362;6.946;2024-03-08T14:38:42;12.73;;;10.80;;
4614;SDS011;2320;51.362;6.946;2024-03-08T14:41:08;13.67;;;10.80;;
4614;SDS011;2320;51.362;6.946;2024-03-08T14:43:33;15.83;;;10.80;;
4614;SDS011;2320;51.362;6.946;2024-03-08T14:45:59;14.43;;;10.73;;
4614;SDS011;2320;51.362;6.946;2024-03-08T14:48:25;15.57;;;9.73;;
4614;SDS011;2320;51.362;6.946;2024-03-08T14:50:50;12.37;;;10.67;;
4614;SDS011;2320;51.362;6.946;2024-03-08T14:53:17;16.40;;;12.40;;
4614;SDS011;2320;51.362;6.946;2024-03-08T14:55:43;15.00;;;10.50;;
4614;SDS011;2320;51.362;6.946;2024-03-08T14:58:12;16.83;;;12.30;;
4614;SDS011;2320;51.362;6.946;2024-03-08T15:00:38;14.50;;;10.87;;
4614;SDS011;2320;51.362;6.946;2024-03-08T15:03:05;15.70;;;11.20;;